createdAt,value
2019-01-29T00:02:12.750Z,75.24
2019-01-29T00:04:41.918Z,75.24
2019-01-29T00:07:11.154Z,75.03
2019-01-29T00:09:40.344Z,75.08
2019-01-29T00:12:09.595Z,74.38
2019-01-29T00:14:38.782Z,73.42
2019-01-29T00:17:07.966Z,72.91
2019-01-29T00:19:37.197Z,72.50
2019-01-29T00:22:46.191Z,72.33
2019-01-29T00:25:54.955Z,72.29
2019-01-29T00:28:24.540Z,71.24
2019-01-29T00:30:53.717Z,70.76
2019-01-29T00:33:22.901Z,70.21
2019-01-29T00:35:52.135Z,70.09
2019-01-29T00:38:21.317Z,70.09
2019-01-29T00:40:50.952Z,69.64
2019-01-29T00:43:20.136Z,69.50
2019-01-29T00:45:49.360Z,69.77
2019-01-29T00:48:18.537Z,68.59
2019-01-29T00:50:47.769Z,68.79
2019-01-29T00:53:16.946Z,68.61
2019-01-29T00:55:46.187Z,68.25
2019-01-29T00:58:15.379Z,68.42
2019-01-29T01:00:44.610Z,68.30
2019-01-29T01:03:14.223Z,68.49
2019-01-29T01:08:18.338Z,68.32
2019-01-29T01:10:47.593Z,68.15
2019-01-29T01:13:17.150Z,68.01
2019-01-29T01:15:46.333Z,67.88
2019-01-29T01:18:15.568Z,67.99
2019-01-29T01:20:44.762Z,67.98
2019-01-29T01:23:14.010Z,67.95
2019-01-29T01:25:43.204Z,67.70
2019-01-29T01:28:12.459Z,67.87
2019-01-29T01:30:41.954Z,67.55
2019-01-29T01:33:11.202Z,67.38
2019-01-29T01:35:40.794Z,67.09
2019-01-29T01:38:10.040Z,67.55
2019-01-29T01:40:39.225Z,67.51
2019-01-29T01:43:08.462Z,67.71
2019-01-29T01:45:37.636Z,67.55
2019-01-29T01:48:06.887Z,67.47
2019-01-29T01:50:36.500Z,67.16
2019-01-29T01:53:05.788Z,67.06
2019-01-29T01:55:34.971Z,66.64
2019-01-29T01:58:04.201Z,66.33
2019-01-29T02:00:33.465Z,66.37
2019-01-29T02:03:03.145Z,66.79
2019-01-29T02:05:32.338Z,66.74
2019-01-29T02:08:01.536Z,66.35
2019-01-29T02:10:31.432Z,66.46
2019-01-29T02:13:00.626Z,66.29
2019-01-29T02:15:30.262Z,66.57
2019-01-29T02:17:59.449Z,66.46
2019-01-29T02:20:28.700Z,66.58
2019-01-29T02:22:57.947Z,66.91
2019-01-29T02:25:27.185Z,66.84
2019-01-29T02:27:56.362Z,66.66
2019-01-29T02:33:20.906Z,66.75
2019-01-29T02:38:25.130Z,66.83
2019-01-29T02:40:54.361Z,66.59
2019-01-29T02:43:23.927Z,66.06
2019-01-29T02:45:53.161Z,65.57
2019-01-29T02:48:22.357Z,65.92
2019-01-29T02:50:51.583Z,65.82
2019-01-29T02:53:58.782Z,65.80
2019-01-29T02:56:47.103Z,65.50
2019-01-29T03:05:56.621Z,66.29
2019-01-29T03:08:45.129Z,66.28
2019-01-29T03:11:14.309Z,66.29
2019-01-29T03:13:43.612Z,66.24
2019-01-29T03:16:12.793Z,66.17
2019-01-29T03:18:42.032Z,66.69
2019-01-29T03:21:50.665Z,66.51
2019-01-29T03:24:19.842Z,66.36
2019-01-29T03:26:49.373Z,66.85
2019-01-29T03:29:18.660Z,66.83
2019-01-29T03:31:47.893Z,66.41
2019-01-29T03:34:17.111Z,66.31
2019-01-29T03:36:46.286Z,66.24
2019-01-29T03:39:22.381Z,66.38
2019-01-29T03:41:51.561Z,66.75
2019-01-29T03:44:20.798Z,66.84
2019-01-29T03:46:49.983Z,66.86
2019-01-29T03:49:19.219Z,66.92
2019-01-29T03:51:48.411Z,67.06
2019-01-29T03:54:17.712Z,66.95
2019-01-29T03:56:46.894Z,67.29
2019-01-29T03:59:16.411Z,66.79
2019-01-29T04:01:45.590Z,66.99
2019-01-29T04:04:15.224Z,67.19
2019-01-29T04:06:44.410Z,67.12
2019-01-29T04:11:49.583Z,67.41
2019-01-29T04:14:19.180Z,67.39
2019-01-29T04:16:48.378Z,67.77
2019-01-29T04:19:17.601Z,67.78
2019-01-29T04:21:46.913Z,67.94
2019-01-29T04:24:16.155Z,67.75
2019-01-29T04:26:45.339Z,67.72
2019-01-29T04:29:14.514Z,67.97
2019-01-29T04:31:44.079Z,68.28
2019-01-29T04:34:13.267Z,68.05
2019-01-29T04:36:42.505Z,68.21
2019-01-29T04:39:11.679Z,67.90
2019-01-29T04:41:40.924Z,68.33
2019-01-29T04:44:10.112Z,68.57
2019-01-29T04:46:39.341Z,68.39
2019-01-29T04:49:08.546Z,68.29
2019-01-29T04:51:37.722Z,68.62
2019-01-29T04:54:06.961Z,68.67
2019-01-29T04:56:36.143Z,68.17
2019-01-29T04:59:05.388Z,68.24
2019-01-29T05:01:34.573Z,68.51
2019-01-29T05:04:03.871Z,68.44
2019-01-29T05:06:33.069Z,68.69
2019-01-29T05:11:36.709Z,68.38
2019-01-29T05:14:06.472Z,68.56
2019-01-29T05:16:35.661Z,67.98
2019-01-29T05:22:00.565Z,68.15
2019-01-29T05:24:29.763Z,68.11
2019-01-29T05:26:58.991Z,68.26
2019-01-29T05:29:28.176Z,68.49
2019-01-29T05:31:57.408Z,68.82
2019-01-29T05:34:26.617Z,68.93
2019-01-29T05:36:56.113Z,68.77
2019-01-29T05:39:25.314Z,68.83
2019-01-29T05:41:54.883Z,69.15
2019-01-29T05:44:24.072Z,68.60
2019-01-29T05:46:53.333Z,68.83
2019-01-29T05:49:22.517Z,68.44
2019-01-29T05:51:51.704Z,67.93
2019-01-29T05:54:20.943Z,67.99
2019-01-29T05:56:50.485Z,68.28
2019-01-29T05:59:19.715Z,68.39
2019-01-29T06:01:48.892Z,68.26
2019-01-29T06:04:18.483Z,68.67
2019-01-29T06:06:47.664Z,68.86
2019-01-29T06:09:16.888Z,68.80
2019-01-29T06:11:46.376Z,68.56
2019-01-29T06:14:15.648Z,68.58
2019-01-29T06:16:44.823Z,68.54
2019-01-29T06:19:14.007Z,68.79
2019-01-29T06:21:43.242Z,68.71
2019-01-29T06:24:12.477Z,68.46
2019-01-29T06:26:42.106Z,68.89
2019-01-29T06:29:11.289Z,68.56
2019-01-29T06:31:40.889Z,68.18
2019-01-29T06:34:10.069Z,68.70
2019-01-29T06:36:39.298Z,68.82
2019-01-29T06:39:08.688Z,68.79
2019-01-29T06:41:37.927Z,68.64
2019-01-29T06:44:07.207Z,68.26
2019-01-29T06:46:36.681Z,68.22
2019-01-29T06:49:06.102Z,68.31
2019-01-29T06:51:35.297Z,68.25
2019-01-29T06:54:04.562Z,68.01
2019-01-29T06:56:33.742Z,67.92
2019-01-29T06:59:02.989Z,68.42
2019-01-29T07:01:32.168Z,68.00
2019-01-29T07:04:01.480Z,67.89
2019-01-29T07:06:30.655Z,67.95
2019-01-29T07:08:59.898Z,67.98
2019-01-29T07:11:29.081Z,68.29
2019-01-29T07:13:58.315Z,68.65
2019-01-29T07:19:42.742Z,68.58
2019-01-29T07:22:11.940Z,68.45
2019-01-29T07:24:43.006Z,67.94
2019-01-29T07:27:12.122Z,68.37
2019-01-29T07:29:44.293Z,67.91
2019-01-29T07:32:13.482Z,68.11
2019-01-29T07:34:42.683Z,67.83
2019-01-29T07:37:12.277Z,67.89
2019-01-29T07:39:41.471Z,67.58
2019-01-29T07:42:10.710Z,67.66
2019-01-29T07:44:40.245Z,67.65
2019-01-29T07:47:09.487Z,67.42
2019-01-29T07:49:38.675Z,67.18
2019-01-29T07:52:07.910Z,67.21
2019-01-29T07:54:37.090Z,67.29
2019-01-29T07:57:06.357Z,67.31
2019-01-29T07:59:35.536Z,66.71
2019-01-29T08:02:04.775Z,66.40
2019-01-29T08:04:34.012Z,66.79
2019-01-29T08:09:58.299Z,66.57
2019-01-29T08:12:27.549Z,66.39
2019-01-29T08:14:56.837Z,66.69
2019-01-29T08:17:26.072Z,66.79
2019-01-29T08:19:55.260Z,66.26
2019-01-29T08:22:24.541Z,66.37
2019-01-29T08:25:01.825Z,66.29
2019-01-29T08:27:24.965Z,66.16
2019-01-29T08:29:54.354Z,65.84
2019-01-29T08:32:23.547Z,65.57
2019-01-29T08:34:52.812Z,65.67
2019-01-29T08:37:22.001Z,65.78
2019-01-29T08:39:51.573Z,65.62
2019-01-29T08:42:21.135Z,65.74
2019-01-29T08:44:50.364Z,65.58
2019-01-29T08:47:19.552Z,64.44
2019-01-29T08:49:49.074Z,64.67
2019-01-29T08:52:18.263Z,64.76
2019-01-29T08:54:47.568Z,64.40
2019-01-29T08:57:17.006Z,64.68
2019-01-29T08:59:46.586Z,65.25
2019-01-29T09:02:15.771Z,66.10
2019-01-29T09:04:45.182Z,66.49
2019-01-29T09:07:14.351Z,66.96
2019-01-29T09:09:43.526Z,66.57
2019-01-29T09:12:12.765Z,66.88
2019-01-29T09:14:41.945Z,67.43
2019-01-29T09:17:11.179Z,68.57
2019-01-29T09:19:40.363Z,68.94
2019-01-29T09:22:09.729Z,69.16
2019-01-29T09:24:38.905Z,67.86
2019-01-29T09:27:08.143Z,67.51
2019-01-29T09:29:37.340Z,67.82
2019-01-29T09:32:06.692Z,65.89
2019-01-29T09:34:35.969Z,64.90
2019-01-29T09:37:44.656Z,62.91
2019-01-29T09:40:16.041Z,62.74
2019-01-29T09:42:45.281Z,62.63
2019-01-29T09:45:16.390Z,63.54
2019-01-29T09:48:04.628Z,63.86
2019-01-29T09:50:33.814Z,63.92
2019-01-29T09:53:03.074Z,63.77
2019-01-29T09:55:32.248Z,63.43
2019-01-29T09:58:01.490Z,61.98
2019-01-29T10:00:35.833Z,62.17
2019-01-29T10:03:05.395Z,62.18
2019-01-29T10:05:34.641Z,60.88
2019-01-29T10:10:59.244Z,59.61
2019-01-29T10:13:28.426Z,59.73
2019-01-29T10:15:57.678Z,59.98
2019-01-29T10:18:26.857Z,59.06
2019-01-29T10:20:56.306Z,58.76
2019-01-29T10:23:25.560Z,57.77
2019-01-29T10:25:54.804Z,56.97
2019-01-29T10:28:23.993Z,55.92
2019-01-29T10:30:53.174Z,55.81
2019-01-29T10:33:22.408Z,55.82
2019-01-29T10:35:51.937Z,55.16
2019-01-29T10:38:21.194Z,55.61
2019-01-29T10:40:50.390Z,54.82
2019-01-29T10:43:19.944Z,54.91
2019-01-29T10:45:49.134Z,55.28
2019-01-29T10:48:18.741Z,53.61
2019-01-29T10:50:47.946Z,54.21
2019-01-29T10:53:17.189Z,52.80
2019-01-29T10:55:47.370Z,52.46
2019-01-29T10:58:17.354Z,51.95
2019-01-29T11:00:46.846Z,51.46
2019-01-29T11:03:16.092Z,52.72
2019-01-29T11:05:45.317Z,52.36
2019-01-29T11:08:14.562Z,52.84
2019-01-29T11:10:43.748Z,53.42
2019-01-29T11:13:12.932Z,51.12
2019-01-29T11:15:43.036Z,51.17
2019-01-29T11:18:14.438Z,50.41
2019-01-29T11:20:44.045Z,51.07
2019-01-29T11:23:13.232Z,50.67
2019-01-29T11:25:42.686Z,50.03
2019-01-29T11:28:11.868Z,49.16
2019-01-29T11:30:41.106Z,49.59
2019-01-29T11:33:10.387Z,50.86
2019-01-29T11:35:40.628Z,51.47
2019-01-29T11:38:10.675Z,51.65
2019-01-29T11:40:40.078Z,51.52
2019-01-29T11:43:09.317Z,50.17
2019-01-29T11:48:49.731Z,49.65
2019-01-29T11:51:18.927Z,51.14
2019-01-29T11:53:48.171Z,51.06
2019-01-29T11:56:17.355Z,50.20
2019-01-29T11:58:46.963Z,50.33
2019-01-29T12:04:24.738Z,50.55
2019-01-29T12:06:53.973Z,49.73
2019-01-29T12:09:23.208Z,49.56
2019-01-29T12:12:11.327Z,48.22
2019-01-29T12:14:40.599Z,46.66
2019-01-29T12:17:09.779Z,46.77
2019-01-29T12:19:38.965Z,46.85
2019-01-29T12:22:08.545Z,46.96
2019-01-29T12:24:37.723Z,47.65
2019-01-29T12:27:06.959Z,48.16
2019-01-29T12:29:36.144Z,48.44
2019-01-29T12:32:45.146Z,48.67
2019-01-29T12:35:14.509Z,49.07
2019-01-29T12:37:43.695Z,48.61
2019-01-29T12:43:08.202Z,49.12
2019-01-29T12:45:37.425Z,49.37
2019-01-29T12:48:46.012Z,49.59
2019-01-29T12:51:35.009Z,50.11
2019-01-29T12:57:12.791Z,47.73
2019-01-29T12:59:41.978Z,46.45
2019-01-29T13:02:11.170Z,46.32
2019-01-29T13:04:40.423Z,47.25
2019-01-29T13:07:09.948Z,47.12
2019-01-29T13:09:39.270Z,46.03
2019-01-29T13:12:08.450Z,46.23
2019-01-29T13:14:37.683Z,47.21
2019-01-29T13:17:06.860Z,48.85
2019-01-29T13:19:36.105Z,48.79
2019-01-29T13:22:05.296Z,47.33
2019-01-29T13:24:34.529Z,40.88
2019-01-29T13:27:03.737Z,43.26
2019-01-29T13:29:33.005Z,41.41
2019-01-29T13:32:02.188Z,40.50
2019-01-29T13:34:31.438Z,42.72
2019-01-29T13:37:00.625Z,41.43
2019-01-29T13:39:29.876Z,42.04
2019-01-29T13:41:59.056Z,41.17
2019-01-29T13:44:28.293Z,39.32
2019-01-29T13:46:57.821Z,40.55
2019-01-29T13:49:27.056Z,39.90
2019-01-29T13:51:56.235Z,40.99
2019-01-29T13:54:25.480Z,40.08
2019-01-29T13:56:55.025Z,40.02
2019-01-29T13:59:24.256Z,40.09
2019-01-29T14:01:53.835Z,39.56
2019-01-29T14:04:23.075Z,39.98
2019-01-29T14:06:52.356Z,39.09
2019-01-29T14:09:21.661Z,39.52
2019-01-29T14:12:09.916Z,39.41
2019-01-29T14:14:39.510Z,38.84
2019-01-29T14:17:08.786Z,38.67
2019-01-29T14:19:37.962Z,39.08
2019-01-29T14:22:07.393Z,39.08
2019-01-29T14:24:36.733Z,39.84
2019-01-29T14:27:05.994Z,39.61
2019-01-29T14:29:35.482Z,39.96
2019-01-29T14:32:05.091Z,39.62
2019-01-29T14:34:34.292Z,38.36
2019-01-29T14:37:03.533Z,37.40
2019-01-29T14:40:10.780Z,37.99
2019-01-29T14:42:42.581Z,38.06
2019-01-29T14:45:19.121Z,38.10
2019-01-29T14:47:48.373Z,34.21
2019-01-29T14:53:26.259Z,26.75
2019-01-29T14:55:55.532Z,25.00
2019-01-29T14:58:24.780Z,22.94
2019-01-29T15:01:33.444Z,22.09
2019-01-29T15:04:02.648Z,21.13
2019-01-29T15:06:32.860Z,20.42
2019-01-29T15:09:22.236Z,20.07
2019-01-29T15:11:51.414Z,20.64
2019-01-29T15:14:20.704Z,21.08
2019-01-29T15:17:08.814Z,23.23
2019-01-29T15:19:38.073Z,26.29
2019-01-29T15:22:07.257Z,30.70
2019-01-29T15:24:36.508Z,34.04
2019-01-29T15:30:33.848Z,38.65
2019-01-29T15:33:03.348Z,41.59
2019-01-29T15:35:32.707Z,42.33
2019-01-29T15:38:01.899Z,43.32
2019-01-29T15:40:31.171Z,44.02
2019-01-29T15:43:00.348Z,44.88
2019-01-29T15:45:30.162Z,45.23
2019-01-29T15:47:59.351Z,45.87
2019-01-29T15:50:28.533Z,46.51
2019-01-29T15:52:57.775Z,46.94
2019-01-29T15:55:27.256Z,47.44
2019-01-29T15:57:56.496Z,47.94
2019-01-29T16:00:27.806Z,48.51
2019-01-29T16:02:57.057Z,48.86
2019-01-29T16:05:27.231Z,49.47
2019-01-29T16:07:56.566Z,50.02
2019-01-29T16:10:28.784Z,50.03
2019-01-29T16:12:58.019Z,50.52
2019-01-29T16:16:06.603Z,50.61
2019-01-29T16:18:36.214Z,50.63
2019-01-29T16:21:05.405Z,51.04
2019-01-29T16:23:34.638Z,51.56
2019-01-29T16:26:03.836Z,51.22
2019-01-29T16:28:33.090Z,51.42
2019-01-29T16:31:02.273Z,51.82
2019-01-29T16:33:31.447Z,52.09
2019-01-29T16:36:00.683Z,52.46
2019-01-29T16:38:29.867Z,52.46
2019-01-29T16:41:00.703Z,52.43
2019-01-29T16:43:30.072Z,52.55
2019-01-29T16:45:59.317Z,52.80
2019-01-29T16:48:28.512Z,52.88
2019-01-29T16:50:57.764Z,53.20
2019-01-29T16:53:26.956Z,53.34
2019-01-29T16:55:56.140Z,53.42
2019-01-29T16:58:25.731Z,53.60
2019-01-29T17:00:54.932Z,53.76
2019-01-29T17:03:24.165Z,54.06
2019-01-29T17:05:53.734Z,54.28
2019-01-29T17:08:23.247Z,54.13
2019-01-29T17:11:11.620Z,54.16
2019-01-29T17:13:41.192Z,54.29
2019-01-29T17:16:10.694Z,54.25
2019-01-29T17:18:39.938Z,54.43
2019-01-29T17:21:09.125Z,54.57
2019-01-29T17:23:38.801Z,54.55
2019-01-29T17:26:08.051Z,54.37
2019-01-29T17:28:37.334Z,54.97
2019-01-29T17:31:06.520Z,54.39
2019-01-29T17:33:35.771Z,54.46
2019-01-29T17:36:05.009Z,54.25
2019-01-29T17:38:34.180Z,54.34
2019-01-29T17:41:03.436Z,54.61
2019-01-29T17:46:20.825Z,54.64
2019-01-29T17:48:50.008Z,55.16
2019-01-29T17:54:14.726Z,54.68
2019-01-29T17:59:18.512Z,55.04
2019-01-29T18:01:47.756Z,54.58
2019-01-29T18:04:17.468Z,55.05
2019-01-29T18:06:46.640Z,54.92
2019-01-29T18:09:15.927Z,54.43
2019-01-29T18:11:45.119Z,54.80
2019-01-29T18:14:14.363Z,54.71
2019-01-29T18:16:43.562Z,54.60
2019-01-29T18:19:12.819Z,54.64
2019-01-29T18:21:42.395Z,54.96
2019-01-29T18:24:11.629Z,55.00
2019-01-29T18:26:41.106Z,55.37
2019-01-29T18:29:10.344Z,54.75
2019-01-29T18:31:39.532Z,54.72
2019-01-29T18:34:08.883Z,54.57
2019-01-29T18:36:38.367Z,55.20
2019-01-29T18:39:09.436Z,54.74
2019-01-29T18:41:38.721Z,54.48
2019-01-29T18:44:07.898Z,54.64
2019-01-29T18:46:37.112Z,54.56
2019-01-29T18:49:06.539Z,54.47
2019-01-29T18:51:35.769Z,54.56
2019-01-29T18:54:04.920Z,54.55
2019-01-29T18:56:34.145Z,54.50
2019-01-29T18:59:03.358Z,54.55
2019-01-29T19:01:32.821Z,54.68
2019-01-29T19:04:02.338Z,54.41
2019-01-29T19:06:31.662Z,55.02
2019-01-29T19:09:00.931Z,54.40
2019-01-29T19:11:30.120Z,54.23
2019-01-29T19:13:59.344Z,54.18
2019-01-29T19:16:28.526Z,54.10
2019-01-29T19:18:57.758Z,54.16
2019-01-29T19:21:26.949Z,54.70
2019-01-29T19:23:56.257Z,54.22
2019-01-29T19:26:25.446Z,53.99
2019-01-29T19:28:54.757Z,53.92
2019-01-29T19:31:24.298Z,53.94
2019-01-29T19:36:28.025Z,54.25
2019-01-29T19:38:57.418Z,54.13
2019-01-29T19:41:26.826Z,54.05
2019-01-29T19:43:56.430Z,54.42
2019-01-29T19:46:25.791Z,54.65
2019-01-29T19:48:55.190Z,54.47
2019-01-29T19:51:24.783Z,54.18
2019-01-29T19:53:54.308Z,54.97
2019-01-29T19:56:24.438Z,54.93
2019-01-29T19:58:54.097Z,54.92
2019-01-29T20:01:26.733Z,54.75
2019-01-29T20:03:56.854Z,54.57
2019-01-29T20:06:27.116Z,54.44
2019-01-29T20:08:57.341Z,54.76
2019-01-29T20:11:27.485Z,54.73
2019-01-29T20:13:57.988Z,54.81
2019-01-29T20:16:28.225Z,54.95
2019-01-29T20:18:58.386Z,55.20
2019-01-29T20:21:28.950Z,55.10
2019-01-29T20:23:59.054Z,55.87
2019-01-29T20:26:29.237Z,55.07
2019-01-29T20:28:59.788Z,55.38
2019-01-29T20:31:29.855Z,55.20
2019-01-29T20:34:00.575Z,55.47
2019-01-29T20:36:33.534Z,55.53
2019-01-29T20:41:43.540Z,55.25
2019-01-29T20:44:13.242Z,55.59
2019-01-29T20:46:42.996Z,55.34
2019-01-29T20:49:51.743Z,55.43
2019-01-29T20:52:21.016Z,55.56
2019-01-29T20:54:50.305Z,56.15
2019-01-29T20:57:19.504Z,56.12
2019-01-29T20:59:48.754Z,56.92
2019-01-29T21:02:17.960Z,57.43
2019-01-29T21:04:47.140Z,58.19
2019-01-29T21:07:16.753Z,57.82
2019-01-29T21:09:46.008Z,57.99
2019-01-29T21:12:15.679Z,58.25
2019-01-29T21:14:44.865Z,58.97
2019-01-29T21:17:14.869Z,58.42
2019-01-29T21:19:44.091Z,58.44
2019-01-29T21:22:13.677Z,58.05
2019-01-29T21:24:42.857Z,58.35
2019-01-29T21:27:12.103Z,59.08
2019-01-29T21:29:41.284Z,59.22
2019-01-29T21:32:11.106Z,59.48
2019-01-29T21:34:40.294Z,59.53
2019-01-29T21:37:09.543Z,59.14
2019-01-29T21:39:38.798Z,59.45
2019-01-29T21:42:08.147Z,59.68
2019-01-29T21:44:37.335Z,58.66
2019-01-29T21:47:25.787Z,59.07
2019-01-29T21:49:54.957Z,59.23
2019-01-29T21:52:24.198Z,58.93
2019-01-29T21:54:53.383Z,58.93
2019-01-29T21:57:23.230Z,58.86
2019-01-29T21:59:52.472Z,59.10
2019-01-29T22:02:21.931Z,59.70
2019-01-29T22:04:51.176Z,58.83
2019-01-29T22:07:20.352Z,59.02
2019-01-29T22:09:49.636Z,58.98
2019-01-29T22:12:18.842Z,59.17
2019-01-29T22:14:48.207Z,59.31
2019-01-29T22:17:17.384Z,59.26
2019-01-29T22:19:46.927Z,59.67
2019-01-29T22:22:16.111Z,59.53
2019-01-29T22:24:45.424Z,59.79
2019-01-29T22:27:14.674Z,59.50
2019-01-29T22:29:43.924Z,59.58
2019-01-29T22:32:13.429Z,58.68
2019-01-29T22:34:42.689Z,58.81
2019-01-29T22:37:11.877Z,59.11
2019-01-29T22:39:42.732Z,58.80
2019-01-29T22:42:12.049Z,59.15
2019-01-29T22:44:41.569Z,59.65
2019-01-29T22:47:10.802Z,59.54
2019-01-29T22:49:40.011Z,59.66
2019-01-29T22:52:09.565Z,59.51
2019-01-29T22:54:39.073Z,59.13
2019-01-29T22:57:08.308Z,58.99
2019-01-29T22:59:37.487Z,59.22
2019-01-29T23:05:01.668Z,59.08
2019-01-29T23:07:37.029Z,58.35
2019-01-29T23:10:12.274Z,57.74
2019-01-29T23:12:41.507Z,58.01
2019-01-29T23:15:12.801Z,57.97
2019-01-29T23:17:42.069Z,57.83
2019-01-29T23:20:12.120Z,57.61
2019-01-29T23:22:41.354Z,57.88
2019-01-29T23:25:10.740Z,57.60
2019-01-29T23:27:39.998Z,57.79
2019-01-29T23:30:13.008Z,57.66
2019-01-29T23:32:42.504Z,57.68
2019-01-29T23:35:11.855Z,58.13
2019-01-29T23:37:41.036Z,58.34
2019-01-29T23:40:12.710Z,58.21
2019-01-29T23:42:41.897Z,58.45
2019-01-29T23:45:11.959Z,58.88
2019-01-29T23:47:41.139Z,59.12
2019-01-29T23:50:11.956Z,58.64
2019-01-29T23:52:41.510Z,58.58
2019-01-29T23:55:50.149Z,58.69
2019-01-29T23:58:19.320Z,57.82
